Time;durP1;ratioP1;P1;durP2;ratioP2;P2;SDS_P1;SDS_P2;PMS_P1;PMS_P2;Temp;Humidity;BMP_temperature;BMP_pressure;BME280_temperature;BME280_humidity;BME280_pressure;Samples;Min_cycle;Max_cycle;Signal;HPM_P1;HPM_P2
2023/01/31 00:00:15;;;;;;;14.90;3.15;;;;;;;;;;4954570;29;20097;-64
2023/01/31 00:02:41;;;;;;;20.17;3.20;;;;;;;;;;4937661;29;20506;-64
2023/01/31 00:05:07;;;;;;;19.65;2.70;;;;;;;;;;4954579;29;20035;-64
2023/01/31 00:07:33;;;;;;;20.13;2.92;;;;;;;;;;4954179;29;20076;-64
2023/01/31 00:09:59;;;;;;;23.92;3.22;;;;;;;;;;4950960;28;20074;-64
2023/01/31 00:12:26;;;;;;;15.48;2.72;;;;;;;;;;4973616;28;20039;-64
2023/01/31 00:14:52;;;;;;;23.20;3.05;;;;;;;;;;4973469;28;20634;-64
2023/01/31 00:17:18;;;;;;;18.73;3.05;;;;;;;;;;4973736;28;20506;-64
2023/01/31 00:19:43;;;;;;;28.10;3.40;;;;;;;;;;4973512;28;20147;-64
2023/01/31 00:22:10;;;;;;;17.45;2.90;;;;;;;;;;4973537;28;20119;-64
2023/01/31 00:24:36;;;;;;;21.90;3.38;;;;;;;;;;4973730;28;20038;-64
2023/01/31 00:27:02;;;;;;;14.00;3.28;;;;;;;;;;4956207;28;20144;-64
2023/01/31 00:29:28;;;;;;;21.05;3.13;;;;;;;;;;4953739;29;20063;-64
2023/01/31 00:31:54;;;;;;;23.67;3.00;;;;;;;;;;4936858;29;20066;-64
2023/01/31 00:34:20;;;;;;;22.10;2.50;;;;;;;;;;4953736;29;20055;-64
2023/01/31 00:36:46;;;;;;;17.17;3.05;;;;;;;;;;4953452;29;20138;-64
2023/01/31 00:39:12;;;;;;;17.98;2.60;;;;;;;;;;4954183;29;20046;-64
2023/01/31 00:41:38;;;;;;;26.73;3.47;;;;;;;;;;4954338;29;20098;-64
2023/01/31 00:44:05;;;;;;;19.33;3.20;;;;;;;;;;4953586;29;20031;-64
2023/01/31 00:46:31;;;;;;;19.80;2.90;;;;;;;;;;4953905;29;20043;-64
2023/01/31 00:48:57;;;;;;;24.50;4.00;;;;;;;;;;4953902;29;20375;-64
2023/01/31 00:51:23;;;;;;;22.30;3.10;;;;;;;;;;4953663;29;20051;-64
2023/01/31 00:53:50;;;;;;;23.35;2.92;;;;;;;;;;4953965;29;20054;-64
2023/01/31 00:56:22;;;;;;;20.67;2.60;;;;;;;;;;4936702;29;20043;-64
2023/01/31 00:58:48;;;;;;;14.57;2.22;;;;;;;;;;4935166;29;20051;-64
2023/01/31 01:01:25;;;;;;;24.65;2.60;;;;;;;;;;4953720;29;20066;-64
2023/01/31 01:03:51;;;;;;;18.27;2.85;;;;;;;;;;4953593;29;20039;-64
2023/01/31 01:06:17;;;;;;;25.23;2.83;;;;;;;;;;4953300;29;20093;-64
2023/01/31 01:08:44;;;;;;;27.70;3.75;;;;;;;;;;4957139;28;20454;-64
2023/01/31 01:11:12;;;;;;;20.95;2.35;;;;;;;;;;4972605;28;20061;-64
2023/01/31 01:13:38;;;;;;;20.65;2.90;;;;;;;;;;4971884;28;20070;-64
2023/01/31 01:16:05;;;;;;;13.27;2.25;;;;;;;;;;4972805;28;20122;-64
2023/01/31 01:18:34;;;;;;;24.83;3.60;;;;;;;;;;4972448;28;20038;-64
2023/01/31 01:21:10;;;;;;;14.35;3.05;;;;;;;;;;4972119;28;20054;-64
2023/01/31 01:23:37;;;;;;;25.65;4.38;;;;;;;;;;4972230;28;20046;-64
2023/01/31 01:26:04;;;;;;;21.35;2.80;;;;;;;;;;4963515;28;20040;-64
2023/01/31 01:28:32;;;;;;;21.63;2.80;;;;;;;;;;4952695;29;20053;-64
2023/01/31 01:30:59;;;;;;;13.55;2.55;;;;;;;;;;4952964;29;20039;-64
2023/01/31 01:33:25;;;;;;;18.55;2.50;;;;;;;;;;4952986;29;20039;-64
2023/01/31 01:35:51;;;;;;;22.10;3.13;;;;;;;;;;4935583;29;20655;-64
2023/01/31 01:38:17;;;;;;;22.02;3.47;;;;;;;;;;4953136;29;20533;-64
2023/01/31 01:40:43;;;;;;;18.83;2.55;;;;;;;;;;4953131;29;20039;-64
2023/01/31 01:43:10;;;;;;;17.10;4.03;;;;;;;;;;4952620;29;20058;-64
2023/01/31 01:45:36;;;;;;;15.60;2.53;;;;;;;;;;4952939;29;20097;-64
2023/01/31 01:48:08;;;;;;;20.70;2.80;;;;;;;;;;4953019;29;20046;-64
2023/01/31 01:50:36;;;;;;;20.40;2.53;;;;;;;;;;4952516;29;20050;-64
2023/01/31 01:53:09;;;;;;;15.45;2.72;;;;;;;;;;4952816;29;20066;-64
2023/01/31 01:55:35;;;;;;;16.65;2.45;;;;;;;;;;4952778;29;20051;-64
2023/01/31 01:58:09;;;;;;;15.77;2.28;;;;;;;;;;4952412;29;20498;-64
2023/01/31 02:00:36;;;;;;;15.75;2.22;;;;;;;;;;4952640;29;20043;-65
2023/01/31 02:03:04;;;;;;;15.35;2.75;;;;;;;;;;4952617;29;20487;-64
2023/01/31 02:05:32;;;;;;;20.23;2.88;;;;;;;;;;4952454;29;20067;-64
2023/01/31 02:07:59;;;;;;;17.80;1.90;;;;;;;;;;4952926;29;20109;-65
2023/01/31 02:10:42;;;;;;;22.15;3.30;;;;;;;;;;4969449;28;20047;-64
2023/01/31 02:13:08;;;;;;;13.95;1.95;;;;;;;;;;4971323;28;20047;-64
2023/01/31 02:15:34;;;;;;;16.35;2.67;;;;;;;;;;4971786;28;20560;-64
2023/01/31 02:18:01;;;;;;;15.10;2.00;;;;;;;;;;4971896;28;20474;-64
2023/01/31 02:20:45;;;;;;;11.82;2.45;;;;;;;;;;4971274;28;20062;-64
2023/01/31 02:23:30;;;;;;;11.52;2.20;;;;;;;;;;4971440;28;20066;-64
2023/01/31 02:26:09;;;;;;;19.65;2.03;;;;;;;;;;4963359;28;20043;-64
2023/01/31 02:29:04;;;;;;;17.45;2.17;;;;;;;;;;4952171;29;20043;-64
2023/01/31 02:31:30;;;;;;;16.38;2.30;;;;;;;;;;4952520;29;20051;-64
2023/01/31 02:34:15;;;;;;;23.02;2.75;;;;;;;;;;4952130;29;20045;-64
2023/01/31 02:36:41;;;;;;;12.48;2.05;;;;;;;;;;4951970;29;20040;-64
2023/01/31 02:39:07;;;;;;;12.68;2.25;;;;;;;;;;4935176;29;20051;-64
2023/01/31 02:41:43;;;;;;;17.13;2.55;;;;;;;;;;4952322;29;20035;-64
2023/01/31 02:47:30;;;;;;;21.60;2.45;;;;;;;;;;4952059;29;20047;-64
2023/01/31 02:49:59;;;;;;;20.40;2.40;;;;;;;;;;4926908;29;20055;-64
2023/01/31 02:52:33;;;;;;;14.93;2.00;;;;;;;;;;4952218;29;20178;-64
2023/01/31 02:57:54;;;;;;;19.38;2.33;;;;;;;;;;4951703;29;20051;-64
2023/01/31 03:00:20;;;;;;;13.82;2.75;;;;;;;;;;4952285;29;20058;-64
2023/01/31 03:02:46;;;;;;;24.20;2.45;;;;;;;;;;4952200;29;20039;-64
2023/01/31 03:05:16;;;;;;;22.90;2.58;;;;;;;;;;4951390;29;20039;-64
2023/01/31 03:07:43;;;;;;;19.75;2.60;;;;;;;;;;4952244;29;20070;-64
2023/01/31 03:10:20;;;;;;;18.15;2.35;;;;;;;;;;4967112;28;20490;-64
2023/01/31 03:12:49;;;;;;;14.60;2.28;;;;;;;;;;4970957;28;20093;-64
2023/01/31 03:17:30;;;;;;;14.40;2.22;;;;;;;;;;4953906;28;20082;-64
2023/01/31 03:18:21;;;;;;;18.88;2.58;;;;;;;;;;4971094;28;20520;-64
2023/01/31 03:21:00;;;;;;;15.57;1.95;;;;;;;;;;4970752;28;20405;-64
2023/01/31 03:23:29;;;;;;;21.10;3.35;;;;;;;;;;4974947;28;20126;-64
2023/01/31 03:25:57;;;;;;;16.83;2.58;;;;;;;;;;4966281;28;20134;-64
2023/01/31 03:28:27;;;;;;;17.90;2.75;;;;;;;;;;4955204;29;20094;-64
2023/01/31 03:31:01;;;;;;;17.30;2.58;;;;;;;;;;4955222;29;20385;-64
2023/01/31 03:33:30;;;;;;;23.17;2.67;;;;;;;;;;4938044;29;20043;-64
2023/01/31 03:36:05;;;;;;;9.82;1.95;;;;;;;;;;4954959;29;20699;-64
2023/01/31 03:38:34;;;;;;;16.55;3.08;;;;;;;;;;4955379;29;20031;-65
2023/01/31 03:41:20;;;;;;;16.52;2.67;;;;;;;;;;4955153;29;20226;-64
2023/01/31 03:43:52;;;;;;;18.80;2.10;;;;;;;;;;4954798;29;20042;-64
2023/01/31 03:46:38;;;;;;;14.75;2.38;;;;;;;;;;4954893;29;20035;-64
2023/01/31 03:49:07;;;;;;;20.02;2.97;;;;;;;;;;4941622;29;20074;-64
2023/01/31 03:51:35;;;;;;;17.27;2.65;;;;;;;;;;4937718;29;20462;-64
2023/01/31 03:54:04;;;;;;;17.30;2.30;;;;;;;;;;4955055;29;20045;-64
2023/01/31 03:56:30;;;;;;;16.85;1.95;;;;;;;;;;4954534;29;20090;-64
2023/01/31 03:59:02;;;;;;;22.92;3.30;;;;;;;;;;4955067;29;20035;-64
2023/01/31 04:01:31;;;;;;;11.82;2.13;;;;;;;;;;4954840;29;20039;-64
2023/01/31 04:04:07;;;;;;;18.45;3.28;;;;;;;;;;4954208;29;20054;-64
2023/01/31 04:06:33;;;;;;;22.58;3.03;;;;;;;;;;4954731;29;20796;-64
2023/01/31 04:08:59;;;;;;;16.67;3.20;;;;;;;;;;4942982;28;20054;-64
2023/01/31 04:11:26;;;;;;;18.35;2.72;;;;;;;;;;4973717;28;20121;-64
2023/01/31 04:13:53;;;;;;;26.20;3.22;;;;;;;;;;4973699;28;20050;-64
2023/01/31 04:16:19;;;;;;;19.10;3.25;;;;;;;;;;4973885;28;20092;-64
2023/01/31 04:18:45;;;;;;;17.23;2.88;;;;;;;;;;4973550;28;20043;-64
2023/01/31 04:21:13;;;;;;;16.08;2.92;;;;;;;;;;4973552;28;20134;-64
2023/01/31 04:23:39;;;;;;;18.95;2.65;;;;;;;;;;4973639;28;20049;-64
2023/01/31 04:26:06;;;;;;;18.67;3.40;;;;;;;;;;4963500;28;20062;-64
2023/01/31 04:28:32;;;;;;;23.20;2.88;;;;;;;;;;4954082;29;20102;-64
2023/01/31 04:30:58;;;;;;;22.23;4.07;;;;;;;;;;4936950;29;20050;-64
2023/01/31 04:33:24;;;;;;;15.23;3.30;;;;;;;;;;4953620;28;20468;-64
2023/01/31 04:35:50;;;;;;;29.85;4.03;;;;;;;;;;4953998;29;20051;-64
2023/01/31 04:38:16;;;;;;;20.40;3.45;;;;;;;;;;4954430;29;20043;-64
2023/01/31 04:40:42;;;;;;;26.30;4.25;;;;;;;;;;4954082;29;20446;-64
2023/01/31 04:43:08;;;;;;;26.63;3.38;;;;;;;;;;4954157;29;20533;-64
2023/01/31 04:45:34;;;;;;;25.65;3.88;;;;;;;;;;4936861;29;20126;-64
2023/01/31 04:48:00;;;;;;;15.48;3.17;;;;;;;;;;4936523;29;20055;-64
2023/01/31 04:50:26;;;;;;;22.33;3.40;;;;;;;;;;4953768;29;20042;-64
2023/01/31 04:52:52;;;;;;;22.23;3.70;;;;;;;;;;4936541;29;20066;-64
2023/01/31 04:55:18;;;;;;;27.52;4.00;;;;;;;;;;4920468;29;20478;-64
2023/01/31 04:57:45;;;;;;;25.33;4.22;;;;;;;;;;4953640;29;20051;-64
2023/01/31 05:00:11;;;;;;;22.05;3.97;;;;;;;;;;4953315;29;20126;-64
2023/01/31 05:02:37;;;;;;;23.27;3.45;;;;;;;;;;4953615;29;20042;-64
2023/01/31 05:05:04;;;;;;;23.27;3.50;;;;;;;;;;4953390;29;20379;-64
2023/01/31 05:07:30;;;;;;;23.45;3.85;;;;;;;;;;4953779;29;20525;-64
2023/01/31 05:09:56;;;;;;;26.35;4.95;;;;;;;;;;4966275;28;20042;-64
2023/01/31 05:12:22;;;;;;;25.05;3.38;;;;;;;;;;4972900;28;20062;-64
2023/01/31 05:14:48;;;;;;;20.45;3.47;;;;;;;;;;4972551;28;20172;-64
2023/01/31 05:17:14;;;;;;;23.70;3.95;;;;;;;;;;4972641;28;20046;-64
2023/01/31 05:19:42;;;;;;;25.15;4.00;;;;;;;;;;4972691;28;20046;-64
2023/01/31 05:22:08;;;;;;;27.30;4.20;;;;;;;;;;4955615;28;20444;-64
2023/01/31 05:24:35;;;;;;;25.65;4.47;;;;;;;;;;4955675;28;20042;-64
2023/01/31 05:27:01;;;;;;;26.25;4.38;;;;;;;;;;4955585;28;20676;-64
2023/01/31 05:29:28;;;;;;;20.52;4.13;;;;;;;;;;4936504;29;20043;-64
2023/01/31 05:31:55;;;;;;;31.75;5.05;;;;;;;;;;4953549;29;20474;-64
2023/01/31 05:34:24;;;;;;;25.33;4.47;;;;;;;;;;4953013;29;20097;-64
2023/01/31 05:36:50;;;;;;;22.63;4.95;;;;;;;;;;4953183;29;20591;-64
2023/01/31 05:39:16;;;;;;;33.67;4.60;;;;;;;;;;4953581;29;20039;-64
2023/01/31 05:41:42;;;;;;;25.88;5.05;;;;;;;;;;4953128;29;20126;-64
2023/01/31 05:44:09;;;;;;;24.92;5.00;;;;;;;;;;4953057;28;20457;-64
2023/01/31 05:46:35;;;;;;;26.17;5.00;;;;;;;;;;4953367;29;20093;-64
2023/01/31 05:49:01;;;;;;;25.67;4.32;;;;;;;;;;4953040;29;20470;-64
2023/01/31 05:51:27;;;;;;;26.67;5.13;;;;;;;;;;4936097;29;20078;-64
2023/01/31 05:53:54;;;;;;;25.65;5.05;;;;;;;;;;4953092;29;20078;-64
2023/01/31 05:56:20;;;;;;;27.77;5.22;;;;;;;;;;4952695;29;20047;-64
2023/01/31 05:58:49;;;;;;;26.55;4.95;;;;;;;;;;4953153;29;20042;-64
2023/01/31 06:01:19;;;;;;;25.20;4.82;;;;;;;;;;4952816;29;20139;-64
2023/01/31 06:03:45;;;;;;;29.83;5.32;;;;;;;;;;4935309;29;20047;-64
2023/01/31 06:06:12;;;;;;;26.00;5.28;;;;;;;;;;4952748;29;20102;-64
2023/01/31 06:08:38;;;;;;;24.85;5.53;;;;;;;;;;4955980;28;20042;-64
2023/01/31 06:11:04;;;;;;;25.70;6.32;;;;;;;;;;4972152;28;20078;-64
2023/01/31 06:13:31;;;;;;;22.85;6.20;;;;;;;;;;4954718;28;20046;-64
2023/01/31 06:15:57;;;;;;;34.80;5.88;;;;;;;;;;4972177;28;20044;-64
2023/01/31 06:18:25;;;;;;;30.70;5.90;;;;;;;;;;4971636;28;20039;-64
2023/01/31 06:20:51;;;;;;;30.15;6.70;;;;;;;;;;4971973;28;20059;-64
2023/01/31 06:23:17;;;;;;;27.42;6.55;;;;;;;;;;4972100;28;20622;-64
2023/01/31 06:25:43;;;;;;;32.53;7.95;;;;;;;;;;4965215;28;20039;-64
2023/01/31 06:28:09;;;;;;;31.77;5.90;;;;;;;;;;4952668;29;20487;-64
2023/01/31 06:30:35;;;;;;;27.10;5.63;;;;;;;;;;4953077;29;20047;-64
2023/01/31 06:33:02;;;;;;;21.60;5.65;;;;;;;;;;4952040;29;20094;-64
2023/01/31 06:35:28;;;;;;;40.17;7.95;;;;;;;;;;4952822;29;20378;-64
2023/01/31 06:37:54;;;;;;;23.05;5.57;;;;;;;;;;4952742;29;20039;-64
2023/01/31 06:40:21;;;;;;;28.48;5.65;;;;;;;;;;4952625;29;20355;-64
2023/01/31 06:42:47;;;;;;;25.75;5.68;;;;;;;;;;4952804;29;20095;-64
2023/01/31 06:45:13;;;;;;;25.92;5.57;;;;;;;;;;4952614;29;20122;-64
2023/01/31 06:47:39;;;;;;;26.63;5.30;;;;;;;;;;4952287;29;20126;-64
2023/01/31 06:50:05;;;;;;;26.55;5.22;;;;;;;;;;4952787;29;20051;-64
2023/01/31 06:52:31;;;;;;;40.03;6.65;;;;;;;;;;4952801;29;20126;-64
2023/01/31 06:54:57;;;;;;;24.90;5.10;;;;;;;;;;4952417;28;20137;-64
2023/01/31 06:57:23;;;;;;;33.67;5.60;;;;;;;;;;4955302;29;20051;-64
2023/01/31 06:59:49;;;;;;;41.35;6.50;;;;;;;;;;4956495;29;20043;-64
2023/01/31 07:02:15;;;;;;;32.33;6.68;;;;;;;;;;4956046;29;20130;-64
2023/01/31 07:04:41;;;;;;;29.15;5.53;;;;;;;;;;4956058;29;20090;-64
2023/01/31 07:07:07;;;;;;;25.30;5.40;;;;;;;;;;4956335;29;20051;-64
2023/01/31 07:09:33;;;;;;;22.33;5.20;;;;;;;;;;4966107;28;20386;-64
2023/01/31 07:12:01;;;;;;;31.77;6.03;;;;;;;;;;4958140;28;20047;-64
2023/01/31 07:14:27;;;;;;;26.00;5.45;;;;;;;;;;4974957;28;20560;-64
2023/01/31 07:16:53;;;;;;;25.27;5.50;;;;;;;;;;4974847;28;20051;-64
2023/01/31 07:19:19;;;;;;;29.75;5.97;;;;;;;;;;4974866;28;20043;-64
2023/01/31 07:21:47;;;;;;;31.67;5.40;;;;;;;;;;4975023;28;20065;-64
2023/01/31 07:24:14;;;;;;;30.85;5.63;;;;;;;;;;4974773;28;20126;-64
2023/01/31 07:26:40;;;;;;;33.88;5.15;;;;;;;;;;4961029;28;20069;-64
2023/01/31 07:29:06;;;;;;;19.85;4.03;;;;;;;;;;4955647;29;20047;-64
2023/01/31 07:31:32;;;;;;;22.55;4.68;;;;;;;;;;4955565;29;20131;-64
2023/01/31 07:33:58;;;;;;;22.70;3.90;;;;;;;;;;4952870;28;20162;-64
2023/01/31 07:36:25;;;;;;;22.20;4.10;;;;;;;;;;4954623;28;20074;-64
2023/01/31 07:38:55;;;;;;;18.40;3.60;;;;;;;;;;4973751;28;20122;-64
2023/01/31 07:41:21;;;;;;;23.98;4.25;;;;;;;;;;4948882;28;20043;-63
2023/01/31 07:43:47;;;;;;;28.73;4.22;;;;;;;;;;4955442;28;20038;-64
2023/01/31 07:46:14;;;;;;;18.33;4.38;;;;;;;;;;4973001;28;20049;-63
2023/01/31 07:48:40;;;;;;;27.27;5.18;;;;;;;;;;4973215;28;20051;-63
2023/01/31 07:51:06;;;;;;;19.98;4.28;;;;;;;;;;4956698;28;20059;-64
2023/01/31 07:53:33;;;;;;;24.25;4.40;;;;;;;;;;4969115;28;20138;-63
2023/01/31 07:56:10;;;;;;;24.42;4.82;;;;;;;;;;4967770;28;20082;-64
2023/01/31 07:58:37;;;;;;;23.50;4.22;;;;;;;;;;4972827;28;20045;-64
2023/01/31 08:03:48;;;;;;;20.45;4.25;;;;;;;;;;4968344;28;20043;-64
2023/01/31 08:06:14;;;;;;;19.38;4.20;;;;;;;;;;4972245;28;20387;-65
2023/01/31 08:08:41;;;;;;;20.33;4.40;;;;;;;;;;4970764;28;20101;-65
2023/01/31 08:11:06;;;;;;;24.48;4.40;;;;;;;;;;4969513;28;20069;-68
2023/01/31 08:13:37;;;;;;;18.13;3.90;;;;;;;;;;4951676;28;20043;-68
2023/01/31 08:16:04;;;;;;;25.45;4.43;;;;;;;;;;4967809;28;20046;-69
2023/01/31 08:18:30;;;;;;;20.73;4.45;;;;;;;;;;4960831;28;20078;-66
2023/01/31 08:20:57;;;;;;;19.23;4.20;;;;;;;;;;4967717;28;20596;-68
2023/01/31 08:23:23;;;;;;;27.00;3.95;;;;;;;;;;4952922;28;20467;-67
2023/01/31 08:25:49;;;;;;;21.23;4.35;;;;;;;;;;4959580;28;20090;-66
2023/01/31 08:28:15;;;;;;;18.85;4.40;;;;;;;;;;4972084;28;20062;-67
2023/01/31 08:30:42;;;;;;;19.70;4.53;;;;;;;;;;4971880;28;20118;-68
2023/01/31 08:33:08;;;;;;;21.02;4.85;;;;;;;;;;4967683;28;20066;-68
2023/01/31 08:35:34;;;;;;;27.23;5.47;;;;;;;;;;4969883;28;20057;-68
2023/01/31 08:38:00;;;;;;;23.90;4.78;;;;;;;;;;4971294;28;20046;-66
2023/01/31 08:40:26;;;;;;;21.52;4.93;;;;;;;;;;4964317;28;20406;-66
2023/01/31 08:42:59;;;;;;;27.98;5.00;;;;;;;;;;4970913;28;20041;-68
2023/01/31 08:45:26;;;;;;;21.80;4.85;;;;;;;;;;4966773;28;20047;-67
2023/01/31 08:47:59;;;;;;;24.63;5.13;;;;;;;;;;4967864;28;20042;-65
2023/01/31 08:50:26;;;;;;;20.50;4.28;;;;;;;;;;4959416;28;20184;-66
2023/01/31 08:52:59;;;;;;;28.13;4.65;;;;;;;;;;4959333;28;20050;-65
2023/01/31 08:55:26;;;;;;;27.73;5.20;;;;;;;;;;4947985;28;20090;-65
2023/01/31 08:57:53;;;;;;;23.55;4.60;;;;;;;;;;4970260;28;20039;-66
2023/01/31 09:00:19;;;;;;;26.88;5.00;;;;;;;;;;4951961;28;20121;-65
2023/01/31 09:02:50;;;;;;;19.60;4.15;;;;;;;;;;4957856;28;20731;-65
2023/01/31 09:05:16;;;;;;;23.35;3.85;;;;;;;;;;4967588;28;20038;-64
2023/01/31 09:07:43;;;;;;;20.58;3.70;;;;;;;;;;4961266;28;20065;-64
2023/01/31 09:10:09;;;;;;;24.13;3.67;;;;;;;;;;4966051;28;20040;-64
2023/01/31 09:12:35;;;;;;;21.60;4.45;;;;;;;;;;4964781;28;20781;-66
2023/01/31 09:15:02;;;;;;;23.67;4.22;;;;;;;;;;4965017;28;20051;-65
2023/01/31 09:17:28;;;;;;;17.08;3.67;;;;;;;;;;4968263;28;20047;-64
2023/01/31 09:19:54;;;;;;;16.08;3.85;;;;;;;;;;4967675;28;20055;-65
2023/01/31 09:22:21;;;;;;;17.38;3.72;;;;;;;;;;4946697;28;20051;-65
2023/01/31 09:24:47;;;;;;;24.17;3.85;;;;;;;;;;4951273;28;20118;-66
2023/01/31 09:27:14;;;;;;;28.35;4.75;;;;;;;;;;4951925;28;20047;-65
2023/01/31 09:29:40;;;;;;;21.60;3.78;;;;;;;;;;4951318;28;20144;-65
2023/01/31 09:32:06;;;;;;;27.30;3.90;;;;;;;;;;4968737;28;20075;-65
2023/01/31 09:34:32;;;;;;;20.23;3.42;;;;;;;;;;4970748;28;20046;-64
2023/01/31 09:36:59;;;;;;;23.80;3.92;;;;;;;;;;4966174;28;20062;-65
2023/01/31 09:39:26;;;;;;;22.50;3.72;;;;;;;;;;4969866;28;20387;-66
2023/01/31 09:41:58;;;;;;;19.70;3.22;;;;;;;;;;4956706;28;20073;-65
2023/01/31 09:44:30;;;;;;;19.38;3.58;;;;;;;;;;4969727;28;20589;-65
2023/01/31 09:46:56;;;;;;;;;;;;;;;;;;4964517;28;20085;-65
2023/01/31 09:49:25;;;;;;;13.52;3.50;;;;;;;;;;4965801;28;19957;-64
2023/01/31 09:51:56;;;;;;;20.15;3.53;;;;;;;;;;4963101;28;20039;-64
2023/01/31 09:54:27;;;;;;;25.67;4.43;;;;;;;;;;4962353;28;20051;-63
2023/01/31 09:57:00;;;;;;;17.75;3.42;;;;;;;;;;4960535;28;20721;-64
2023/01/31 09:59:30;;;;;;;26.90;4.07;;;;;;;;;;4965104;28;20118;-64
2023/01/31 10:01:59;;;;;;;22.67;4.38;;;;;;;;;;4967358;28;20043;-65
2023/01/31 10:04:44;;;;;;;18.02;3.85;;;;;;;;;;4970870;28;20061;-65
2023/01/31 10:07:18;;;;;;;22.08;3.78;;;;;;;;;;4968375;28;20536;-66
2023/01/31 10:09:48;;;;;;;17.98;4.07;;;;;;;;;;4970313;28;20383;-68
2023/01/31 10:12:14;;;;;;;22.60;3.92;;;;;;;;;;4942423;28;20123;-65
2023/01/31 10:15:07;;;;;;;19.52;4.25;;;;;;;;;;4950042;28;20046;-67
2023/01/31 10:17:33;;;;;;;19.27;3.80;;;;;;;;;;4915068;28;20047;-65
2023/01/31 10:20:02;;;;;;;20.23;4.15;;;;;;;;;;4968592;28;20065;-64
2023/01/31 10:22:34;;;;;;;21.77;4.28;;;;;;;;;;4967276;28;20073;-65
2023/01/31 10:25:20;;;;;;;21.55;3.83;;;;;;;;;;4952459;28;20880;-65
2023/01/31 10:28:05;;;;;;;21.17;4.90;;;;;;;;;;4965822;28;20465;-65
2023/01/31 10:30:37;;;;;;;21.02;3.53;;;;;;;;;;4970687;28;20154;-65
2023/01/31 10:33:10;;;;;;;17.73;3.58;;;;;;;;;;4971902;28;20864;-64
2023/01/31 10:35:39;;;;;;;28.58;4.60;;;;;;;;;;4970588;28;20045;-62
2023/01/31 10:38:26;;;;;;;21.00;3.53;;;;;;;;;;4972922;28;20047;-65
2023/01/31 10:41:13;;;;;;;20.65;4.22;;;;;;;;;;4967192;28;20038;-65
2023/01/31 10:43:45;;;;;;;20.02;4.40;;;;;;;;;;4973370;28;20054;-64
2023/01/31 10:46:11;;;;;;;28.45;5.13;;;;;;;;;;4968894;28;20574;-65
2023/01/31 10:48:38;;;;;;;23.60;4.65;;;;;;;;;;4949886;29;20051;-64
2023/01/31 10:51:13;;;;;;;20.92;4.88;;;;;;;;;;4964913;28;20054;-64
2023/01/31 10:53:45;;;;;;;17.42;5.78;;;;;;;;;;4971004;28;20070;-65
2023/01/31 10:56:27;;;;;;;25.55;5.82;;;;;;;;;;4953303;28;20042;-65
2023/01/31 10:58:53;;;;;;;24.60;5.17;;;;;;;;;;4961403;28;20162;-66
2023/01/31 11:01:19;;;;;;;27.15;4.93;;;;;;;;;;4969232;28;20043;-65
2023/01/31 11:03:48;;;;;;;22.20;4.80;;;;;;;;;;4958752;28;20054;-65
2023/01/31 11:06:14;;;;;;;25.35;5.32;;;;;;;;;;4962627;28;20050;-63
2023/01/31 11:08:55;;;;;;;31.15;5.72;;;;;;;;;;4961303;28;20526;-65
2023/01/31 11:11:22;;;;;;;28.38;6.05;;;;;;;;;;4961135;28;20039;-66
2023/01/31 11:14:04;;;;;;;29.05;5.55;;;;;;;;;;4948829;29;20094;-66
2023/01/31 11:16:36;;;;;;;27.55;5.20;;;;;;;;;;4947059;28;20165;-66
2023/01/31 11:19:04;;;;;;;31.27;5.97;;;;;;;;;;4961177;28;20035;-64
2023/01/31 11:21:31;;;;;;;22.73;4.95;;;;;;;;;;4967314;28;20057;-65
2023/01/31 11:24:02;;;;;;;26.50;5.32;;;;;;;;;;4953672;28;20051;-65
2023/01/31 11:26:30;;;;;;;26.83;5.18;;;;;;;;;;4971818;28;20065;-65
2023/01/31 11:28:57;;;;;;;23.63;5.45;;;;;;;;;;4968599;28;20096;-65
2023/01/31 11:31:30;;;;;;;29.48;5.40;;;;;;;;;;4967818;28;20097;-65
2023/01/31 11:33:58;;;;;;;27.92;5.05;;;;;;;;;;4971189;28;20069;-65
2023/01/31 11:36:25;;;;;;;27.08;5.50;;;;;;;;;;4971007;28;20049;-67
2023/01/31 11:38:52;;;;;;;25.08;5.68;;;;;;;;;;4971286;28;20446;-67
2023/01/31 11:41:27;;;;;;;27.05;4.53;;;;;;;;;;4972671;28;20027;-67
2023/01/31 11:44:05;;;;;;;25.67;4.60;;;;;;;;;;4969664;28;20549;-65
2023/01/31 11:46:41;;;;;;;26.55;4.78;;;;;;;;;;4970559;28;20125;-66
2023/01/31 11:49:12;;;;;;;29.90;5.45;;;;;;;;;;4937100;29;20047;-67
2023/01/31 11:51:39;;;;;;;31.45;4.93;;;;;;;;;;4966731;28;20039;-67
2023/01/31 11:54:06;;;;;;;29.15;5.03;;;;;;;;;;4956364;28;20055;-66
2023/01/31 11:56:34;;;;;;;34.13;4.97;;;;;;;;;;4973484;28;20489;-66
2023/01/31 11:59:09;;;;;;;28.40;4.93;;;;;;;;;;4973158;28;20606;-66
2023/01/31 12:01:43;;;;;;;29.38;4.32;;;;;;;;;;4955169;28;20194;-66
2023/01/31 12:04:14;;;;;;;22.45;3.90;;;;;;;;;;4966353;28;20039;-65
2023/01/31 12:06:40;;;;;;;23.42;4.90;;;;;;;;;;4938279;28;20042;-65
2023/01/31 12:09:20;;;;;;;23.58;4.35;;;;;;;;;;4966339;28;20049;-65
2023/01/31 12:11:51;;;;;;;23.40;4.38;;;;;;;;;;4966749;28;20097;-65
2023/01/31 12:14:18;;;;;;;29.35;5.43;;;;;;;;;;4973305;28;20422;-65
2023/01/31 12:16:45;;;;;;;26.48;4.53;;;;;;;;;;4972323;28;20046;-65
2023/01/31 12:19:11;;;;;;;19.60;3.78;;;;;;;;;;4972317;28;20141;-65
2023/01/31 12:21:40;;;;;;;30.08;3.88;;;;;;;;;;4972619;28;20718;-65
2023/01/31 12:24:15;;;;;;;20.65;3.58;;;;;;;;;;4973002;28;20078;-65
2023/01/31 12:27:01;;;;;;;19.38;3.75;;;;;;;;;;4962773;28;20054;-65
2023/01/31 12:29:30;;;;;;;15.15;3.72;;;;;;;;;;4972997;28;20109;-65
2023/01/31 12:32:14;;;;;;;19.90;3.80;;;;;;;;;;4951881;29;20051;-65
2023/01/31 12:34:42;;;;;;;24.40;3.33;;;;;;;;;;4956829;28;20039;-65
2023/01/31 12:37:22;;;;;;;30.17;4.55;;;;;;;;;;4959884;28;20094;-65
2023/01/31 12:39:51;;;;;;;17.45;3.47;;;;;;;;;;4970314;28;20034;-65
2023/01/31 12:42:17;;;;;;;16.77;2.63;;;;;;;;;;4933370;28;20390;-65
2023/01/31 12:44:45;;;;;;;23.25;3.33;;;;;;;;;;4972740;28;20039;-65
2023/01/31 12:47:28;;;;;;;25.27;4.10;;;;;;;;;;4968644;28;20086;-65
2023/01/31 12:50:00;;;;;;;20.50;2.92;;;;;;;;;;4963392;28;20074;-65
2023/01/31 12:52:26;;;;;;;17.67;3.38;;;;;;;;;;4965868;28;20055;-66
2023/01/31 12:54:52;;;;;;;14.40;3.47;;;;;;;;;;4951838;28;20053;-65
2023/01/31 12:57:21;;;;;;;19.92;3.45;;;;;;;;;;4944816;29;20139;-63
2023/01/31 12:59:51;;;;;;;17.65;2.97;;;;;;;;;;4954987;28;20033;-63
2023/01/31 13:02:25;;;;;;;20.15;3.40;;;;;;;;;;4936136;28;20125;-64
2023/01/31 13:04:54;;;;;;;21.23;3.40;;;;;;;;;;4964236;28;20041;-64
2023/01/31 13:07:23;;;;;;;12.32;2.72;;;;;;;;;;4964616;28;20043;-65
2023/01/31 13:09:51;;;;;;;16.27;3.55;;;;;;;;;;4966432;28;20057;-65
2023/01/31 13:12:23;;;;;;;17.40;3.33;;;;;;;;;;4962683;28;20685;-66
2023/01/31 13:14:56;;;;;;;16.77;3.05;;;;;;;;;;4965979;28;20054;-65
2023/01/31 13:17:27;;;;;;;17.95;2.88;;;;;;;;;;4959495;28;20094;-65
2023/01/31 13:19:53;;;;;;;17.03;2.83;;;;;;;;;;4962765;28;20051;-67
2023/01/31 13:22:25;;;;;;;18.13;3.60;;;;;;;;;;4966031;28;20425;-66
2023/01/31 13:24:55;;;;;;;18.23;3.10;;;;;;;;;;4967431;28;20030;-65
2023/01/31 13:27:27;;;;;;;18.73;2.80;;;;;;;;;;4956633;28;20529;-66
2023/01/31 13:30:26;;;;;;;21.92;3.10;;;;;;;;;;4951456;28;20038;-66
2023/01/31 13:32:54;;;;;;;17.83;2.90;;;;;;;;;;4920969;28;20058;-68
2023/01/31 13:35:24;;;;;;;13.25;2.75;;;;;;;;;;4946636;28;20138;-68
2023/01/31 13:37:53;;;;;;;18.10;3.17;;;;;;;;;;4946863;28;20051;-68
2023/01/31 13:40:20;;;;;;;17.90;2.75;;;;;;;;;;4970521;28;20049;-66
2023/01/31 13:42:46;;;;;;;15.55;2.78;;;;;;;;;;4961685;28;20050;-67
2023/01/31 13:45:22;;;;;;;13.77;2.30;;;;;;;;;;4943578;28;20050;-65
2023/01/31 13:47:53;;;;;;;14.73;2.65;;;;;;;;;;4964809;28;20042;-65
2023/01/31 13:50:23;;;;;;;14.98;2.90;;;;;;;;;;4967568;28;20129;-66
2023/01/31 13:52:51;;;;;;;15.15;2.65;;;;;;;;;;4952636;28;20054;-65
2023/01/31 13:55:19;;;;;;;20.75;2.90;;;;;;;;;;4968762;28;20373;-64
2023/01/31 13:57:54;;;;;;;13.63;2.50;;;;;;;;;;4970927;28;20046;-67
2023/01/31 14:00:39;;;;;;;15.48;2.58;;;;;;;;;;4970082;28;20100;-64
2023/01/31 14:03:08;;;;;;;16.25;2.70;;;;;;;;;;4970365;28;20563;-65
2023/01/31 14:05:49;;;;;;;12.50;2.58;;;;;;;;;;4969164;28;20425;-65
2023/01/31 14:08:29;;;;;;;12.65;3.00;;;;;;;;;;4966836;28;21242;-65
2023/01/31 14:10:56;;;;;;;11.75;2.58;;;;;;;;;;4961824;28;20035;-66
2023/01/31 14:13:31;;;;;;;14.50;2.50;;;;;;;;;;4967242;28;20122;-66
2023/01/31 14:15:57;;;;;;;15.93;2.80;;;;;;;;;;4949095;29;20031;-66
2023/01/31 14:18:36;;;;;;;15.88;2.80;;;;;;;;;;4962694;28;20363;-65
2023/01/31 14:21:21;;;;;;;9.57;2.33;;;;;;;;;;4967388;28;20498;-67
2023/01/31 14:23:47;;;;;;;17.00;4.07;;;;;;;;;;4948636;28;20041;-65
2023/01/31 14:26:31;;;;;;;11.85;2.88;;;;;;;;;;4963527;28;20039;-64
2023/01/31 14:28:57;;;;;;;33.95;5.82;;;;;;;;;;4963995;28;20140;-65
2023/01/31 14:31:24;;;;;;;14.75;3.38;;;;;;;;;;4970739;28;20390;-64
2023/01/31 14:33:52;;;;;;;15.63;3.40;;;;;;;;;;4964782;28;20045;-65
2023/01/31 14:36:19;;;;;;;25.48;3.15;;;;;;;;;;4947534;28;20759;-64
2023/01/31 14:38:57;;;;;;;11.32;3.03;;;;;;;;;;4958835;28;20077;-64
2023/01/31 14:41:42;;;;;;;12.57;2.75;;;;;;;;;;4963142;28;20070;-65
2023/01/31 14:44:20;;;;;;;19.35;3.30;;;;;;;;;;4963719;28;20091;-65
2023/01/31 14:47:02;;;;;;;18.25;2.92;;;;;;;;;;4943282;28;20526;-65
2023/01/31 14:49:42;;;;;;;28.52;3.63;;;;;;;;;;4967648;28;20047;-65
2023/01/31 14:52:11;;;;;;;17.00;3.00;;;;;;;;;;4947658;28;20065;-66